createdAt,value
2019-01-17T00:06:24.450Z,3.68
2019-01-17T00:09:05.973Z,3.54
2019-01-17T00:11:54.067Z,3.65
2019-01-17T00:14:29.973Z,3.57
2019-01-17T00:17:18.763Z,3.50
2019-01-17T00:20:06.864Z,3.36
2019-01-17T00:22:54.951Z,3.38
2019-01-17T00:25:42.927Z,3.45
2019-01-17T00:28:27.924Z,3.41
2019-01-17T00:31:16.705Z,3.57
2019-01-17T00:33:56.563Z,3.45
2019-01-17T00:36:44.443Z,3.63
2019-01-17T00:39:32.489Z,3.66
2019-01-17T00:42:13.769Z,3.70
2019-01-17T00:45:01.701Z,3.38
2019-01-17T00:47:50.582Z,3.55
2019-01-17T00:50:29.786Z,3.30
2019-01-17T00:53:18.571Z,3.25
2019-01-17T00:56:06.460Z,3.14
2019-01-17T01:02:10.534Z,3.47
2019-01-17T01:04:59.288Z,3.44
2019-01-17T01:07:47.223Z,3.54
2019-01-17T01:10:35.262Z,3.51
2019-01-17T01:13:23.307Z,3.14
2019-01-17T01:16:15.201Z,3.37
2019-01-17T01:18:53.003Z,3.54
2019-01-17T01:21:42.368Z,3.54
2019-01-17T01:24:31.331Z,3.45
2019-01-17T01:27:11.694Z,3.30
2019-01-17T01:30:01.681Z,3.39
2019-01-17T01:32:49.749Z,3.44
2019-01-17T01:35:37.663Z,3.30
2019-01-17T01:38:25.645Z,3.08
2019-01-17T01:41:13.680Z,3.13
2019-01-17T01:46:55.131Z,3.09
2019-01-17T01:49:43.126Z,3.24
2019-01-17T01:52:31.010Z,2.97
2019-01-17T01:54:59.509Z,2.88
2019-01-17T01:57:28.847Z,3.01
2019-01-17T01:59:58.184Z,3.00
2019-01-17T02:02:27.509Z,3.12
2019-01-17T02:04:56.867Z,3.13
2019-01-17T02:07:26.198Z,2.82
2019-01-17T02:09:55.511Z,2.92
2019-01-17T02:12:37.171Z,2.78
2019-01-17T02:15:06.602Z,2.89
2019-01-17T02:17:36.019Z,2.90
2019-01-17T02:20:06.317Z,2.30
2019-01-17T02:22:34.945Z,2.57
2019-01-17T02:25:04.658Z,2.80
2019-01-17T02:27:33.106Z,2.89
2019-01-17T02:30:01.724Z,2.83
2019-01-17T02:32:31.068Z,2.86
2019-01-17T02:35:00.371Z,2.82
2019-01-17T02:37:29.692Z,2.47
2019-01-17T02:39:59.008Z,2.63
2019-01-17T02:42:28.334Z,2.73
2019-01-17T02:44:57.679Z,2.33
2019-01-17T02:47:26.115Z,2.51
2019-01-17T02:49:54.646Z,2.73
2019-01-17T02:52:23.994Z,2.79
2019-01-17T02:54:53.411Z,2.71
2019-01-17T02:57:22.758Z,2.58
2019-01-17T02:59:52.083Z,2.53
2019-01-17T03:02:21.424Z,2.41
2019-01-17T03:04:50.850Z,2.61
2019-01-17T03:07:20.236Z,2.69
2019-01-17T03:09:49.544Z,2.36
2019-01-17T03:12:18.872Z,2.55
2019-01-17T03:14:47.313Z,2.73
2019-01-17T03:17:15.844Z,2.48
2019-01-17T03:19:45.188Z,2.55
2019-01-17T03:22:14.510Z,2.25
2019-01-17T03:24:43.825Z,1.96
2019-01-17T03:27:13.166Z,2.22
2019-01-17T03:29:42.483Z,2.36
2019-01-17T03:32:11.816Z,2.28
2019-01-17T03:34:40.358Z,2.30
2019-01-17T03:37:08.770Z,2.28
2019-01-17T03:39:38.095Z,2.22
2019-01-17T03:45:10.239Z,2.32
2019-01-17T03:47:38.977Z,2.32
2019-01-17T03:50:10.484Z,2.34
2019-01-17T03:52:39.116Z,2.34
2019-01-17T03:55:10.155Z,2.39
2019-01-17T03:57:38.800Z,2.21
2019-01-17T04:00:10.585Z,2.32
2019-01-17T04:02:39.216Z,2.52
2019-01-17T04:05:08.668Z,2.38
2019-01-17T04:07:37.998Z,2.20
2019-01-17T04:10:08.680Z,2.19
2019-01-17T04:12:37.197Z,2.35
2019-01-17T04:15:07.126Z,2.41
2019-01-17T04:17:35.833Z,2.34
2019-01-17T04:20:07.213Z,2.11
2019-01-17T04:22:35.750Z,2.09
2019-01-17T04:25:05.607Z,2.34
2019-01-17T04:27:34.931Z,2.41
2019-01-17T04:30:06.327Z,2.41
2019-01-17T04:32:34.848Z,2.50
2019-01-17T04:35:04.458Z,2.49
2019-01-17T04:37:33.094Z,2.34
2019-01-17T04:40:01.517Z,2.15
2019-01-17T04:42:30.833Z,2.12
2019-01-17T04:45:00.265Z,2.18
2019-01-17T04:47:29.872Z,2.33
2019-01-17T04:49:59.222Z,2.25
2019-01-17T04:52:27.741Z,2.33
2019-01-17T04:54:57.072Z,2.27
2019-01-17T04:57:26.388Z,2.25
2019-01-17T04:59:55.014Z,2.43
2019-01-17T05:02:23.549Z,2.45
2019-01-17T05:04:52.882Z,2.59
2019-01-17T05:07:22.216Z,2.55
2019-01-17T05:09:51.549Z,2.58
2019-01-17T05:12:20.898Z,2.60
2019-01-17T05:14:50.226Z,2.66
2019-01-17T05:17:19.637Z,2.56
2019-01-17T05:19:48.990Z,2.27
2019-01-17T05:22:17.427Z,1.86
2019-01-17T05:24:45.849Z,1.77
2019-01-17T05:27:15.219Z,2.08
2019-01-17T05:29:44.541Z,2.21
2019-01-17T05:32:14.294Z,2.41
2019-01-17T05:34:43.617Z,2.26
2019-01-17T05:37:12.941Z,2.34
2019-01-17T05:39:42.265Z,2.53
2019-01-17T05:42:11.594Z,2.22
2019-01-17T05:44:40.918Z,1.98
2019-01-17T05:47:10.233Z,2.35
2019-01-17T05:49:38.783Z,2.46
2019-01-17T05:52:07.307Z,2.13
2019-01-17T05:54:36.655Z,2.18
2019-01-17T05:57:06.073Z,2.46
2019-01-17T05:59:35.407Z,2.53
2019-01-17T06:02:04.747Z,2.50
2019-01-17T06:04:34.079Z,2.73
2019-01-17T06:07:02.616Z,2.57
2019-01-17T06:09:31.948Z,2.37
2019-01-17T06:12:00.389Z,2.14
2019-01-17T06:14:28.940Z,2.11
2019-01-17T06:16:58.274Z,2.51
2019-01-17T06:19:27.633Z,2.64
2019-01-17T06:21:56.955Z,2.62
2019-01-17T06:24:26.301Z,2.60
2019-01-17T06:26:55.675Z,2.51
2019-01-17T06:29:24.056Z,2.67
2019-01-17T06:31:53.381Z,2.97
2019-01-17T06:34:22.864Z,2.81
2019-01-17T06:36:51.277Z,2.89
2019-01-17T06:39:19.759Z,2.84
2019-01-17T06:41:49.078Z,2.93
2019-01-17T06:44:20.473Z,2.72
2019-01-17T06:47:07.629Z,2.61
2019-01-17T06:49:36.956Z,2.69
2019-01-17T06:52:06.283Z,2.81
2019-01-17T06:54:36.027Z,2.63
2019-01-17T06:57:05.357Z,2.74
2019-01-17T06:59:34.716Z,2.68
2019-01-17T07:02:03.663Z,2.84
2019-01-17T07:04:32.224Z,2.98
2019-01-17T07:07:00.740Z,3.04
2019-01-17T07:09:30.072Z,3.13
2019-01-17T07:11:59.425Z,3.26
2019-01-17T07:14:27.988Z,3.50
2019-01-17T07:16:57.343Z,3.55
2019-01-17T07:19:26.681Z,3.59
2019-01-17T07:21:55.204Z,3.70
2019-01-17T07:24:23.755Z,3.81
2019-01-17T07:26:52.279Z,3.90
2019-01-17T07:29:21.638Z,3.73
2019-01-17T07:31:50.942Z,3.70
2019-01-17T07:34:20.362Z,3.76
2019-01-17T07:36:48.980Z,3.86
2019-01-17T07:39:18.986Z,3.93
2019-01-17T07:41:47.505Z,4.06
2019-01-17T07:44:16.512Z,4.15
2019-01-17T07:46:45.040Z,4.02
2019-01-17T07:49:14.377Z,4.12
2019-01-17T07:51:43.744Z,4.20
2019-01-17T07:54:13.067Z,4.29
2019-01-17T07:56:42.387Z,4.46
2019-01-17T07:59:11.707Z,4.52
2019-01-17T08:01:40.241Z,4.55
2019-01-17T08:04:08.672Z,4.55
2019-01-17T08:06:37.213Z,4.63
2019-01-17T08:09:08.588Z,4.71
2019-01-17T08:11:37.146Z,4.90
2019-01-17T08:14:05.692Z,5.04
2019-01-17T08:16:34.240Z,5.22
2019-01-17T08:19:02.762Z,5.23
2019-01-17T08:21:32.087Z,5.41
2019-01-17T08:24:00.610Z,5.56
2019-01-17T08:26:29.265Z,5.93
2019-01-17T08:28:58.116Z,6.29
2019-01-17T08:31:26.550Z,6.22
2019-01-17T08:33:55.068Z,6.47
2019-01-17T08:36:23.705Z,6.53
2019-01-17T08:38:52.240Z,6.40
2019-01-17T08:41:21.571Z,6.57
2019-01-17T08:43:50.104Z,6.59
2019-01-17T08:46:18.655Z,6.75
2019-01-17T08:48:47.094Z,6.86
2019-01-17T08:51:15.843Z,7.07
2019-01-17T08:53:45.177Z,7.00
2019-01-17T08:56:14.523Z,7.08
2019-01-17T08:58:43.861Z,7.09
2019-01-17T09:01:12.388Z,7.27
2019-01-17T09:03:40.816Z,7.46
2019-01-17T09:06:10.475Z,7.53
2019-01-17T09:08:39.839Z,7.72
2019-01-17T09:11:09.279Z,7.79
2019-01-17T09:13:38.607Z,7.96
2019-01-17T09:16:07.941Z,8.00
2019-01-17T09:18:37.273Z,8.20
2019-01-17T09:21:06.630Z,8.22
2019-01-17T09:23:35.983Z,8.18
2019-01-17T09:26:07.625Z,8.36
2019-01-17T09:28:54.557Z,8.60
2019-01-17T09:31:23.898Z,8.67
2019-01-17T09:33:52.539Z,8.73
2019-01-17T09:36:21.874Z,8.83
2019-01-17T09:38:51.220Z,8.80
2019-01-17T09:41:20.745Z,9.04
2019-01-17T09:44:09.761Z,9.14
2019-01-17T09:46:39.106Z,9.09
2019-01-17T09:49:07.744Z,9.18
2019-01-17T09:51:36.271Z,9.26
2019-01-17T09:54:05.613Z,9.29
2019-01-17T09:56:34.039Z,9.34
2019-01-17T09:59:02.592Z,9.38
2019-01-17T10:01:32.076Z,9.52
2019-01-17T10:04:01.537Z,9.67
2019-01-17T10:06:30.876Z,9.68
2019-01-17T10:09:00.281Z,9.59
2019-01-17T10:11:29.747Z,9.57
2019-01-17T10:13:58.295Z,9.69
2019-01-17T10:16:50.164Z,9.89
2019-01-17T10:19:58.223Z,9.86
2019-01-17T10:23:05.536Z,9.88
2019-01-17T10:26:21.176Z,10.12
2019-01-17T10:33:07.388Z,10.20
2019-01-17T10:36:20.928Z,10.27
2019-01-17T10:39:29.043Z,10.41
2019-01-17T10:42:36.303Z,10.37
2019-01-17T10:45:33.366Z,10.53
2019-01-17T10:48:37.695Z,10.40
2019-01-17T10:51:28.233Z,10.48
2019-01-17T10:54:20.510Z,10.51
2019-01-17T10:57:27.775Z,10.57
2019-01-17T11:00:24.257Z,10.81
2019-01-17T11:03:32.733Z,10.67
2019-01-17T11:06:47.929Z,10.85
2019-01-17T11:10:10.414Z,10.92
2019-01-17T11:12:55.658Z,11.07
2019-01-17T11:16:09.087Z,11.24
2019-01-17T11:19:17.143Z,11.22
2019-01-17T11:22:08.611Z,11.31
2019-01-17T11:25:16.652Z,11.25
2019-01-17T11:28:23.980Z,11.31
2019-01-17T11:31:31.239Z,11.36
2019-01-17T11:34:38.581Z,11.36
2019-01-17T11:37:45.849Z,11.45
2019-01-17T11:40:53.173Z,11.39
2019-01-17T11:44:01.254Z,11.49
2019-01-17T11:47:08.404Z,11.41
2019-01-17T11:50:15.658Z,11.33
2019-01-17T11:53:12.288Z,11.56
2019-01-17T11:56:09.347Z,11.48
2019-01-17T11:59:17.420Z,11.75
2019-01-17T12:02:24.764Z,11.51
2019-01-17T12:04:52.120Z,11.41
2019-01-17T12:07:21.620Z,11.47
2019-01-17T12:09:50.955Z,11.42
2019-01-17T12:12:39.747Z,11.54
2019-01-17T12:15:08.880Z,11.55
2019-01-17T12:17:38.234Z,11.55
2019-01-17T12:20:07.759Z,11.56
2019-01-17T12:22:36.721Z,11.59
2019-01-17T12:25:06.020Z,11.63
2019-01-17T12:27:35.357Z,11.58
2019-01-17T12:30:08.416Z,11.64
2019-01-17T12:32:37.198Z,11.63
2019-01-17T12:35:07.020Z,11.69
2019-01-17T12:37:35.788Z,11.75
2019-01-17T12:40:06.323Z,11.81
2019-01-17T12:42:34.878Z,11.90
2019-01-17T12:45:05.384Z,11.80
2019-01-17T12:47:33.946Z,11.67
2019-01-17T12:53:09.391Z,11.46
2019-01-17T12:55:37.856Z,11.44
2019-01-17T12:58:07.168Z,11.30
2019-01-17T13:00:36.502Z,11.23
2019-01-17T13:03:05.855Z,11.34
2019-01-17T13:05:35.303Z,11.56
2019-01-17T13:08:04.760Z,11.66
2019-01-17T13:10:34.097Z,11.80
2019-01-17T13:13:03.545Z,11.84
2019-01-17T13:15:32.931Z,11.85
2019-01-17T13:18:02.405Z,11.88
2019-01-17T13:20:31.272Z,11.88
2019-01-17T13:22:59.797Z,11.88
2019-01-17T13:25:29.162Z,11.87
2019-01-17T13:27:58.520Z,11.88
2019-01-17T13:30:27.878Z,11.83
2019-01-17T13:32:57.485Z,11.80
2019-01-17T13:35:26.018Z,11.79
2019-01-17T13:37:55.365Z,11.75
2019-01-17T13:40:24.707Z,11.67
2019-01-17T13:42:54.036Z,11.78
2019-01-17T13:45:22.684Z,11.84
2019-01-17T13:47:51.359Z,11.80
2019-01-17T13:50:20.976Z,11.83
2019-01-17T13:52:50.452Z,11.90
2019-01-17T13:55:19.853Z,11.81
2019-01-17T13:57:49.200Z,11.86
2019-01-17T14:00:20.839Z,11.77
2019-01-17T14:02:49.687Z,11.88
2019-01-17T14:05:19.317Z,11.84
2019-01-17T14:10:51.222Z,11.75
2019-01-17T14:13:20.614Z,11.60
2019-01-17T14:15:49.956Z,11.47
2019-01-17T14:18:19.280Z,11.39
2019-01-17T14:20:48.629Z,11.27
2019-01-17T14:23:17.970Z,11.19
2019-01-17T14:25:47.433Z,11.06
2019-01-17T14:28:16.767Z,11.04
2019-01-17T14:30:46.109Z,11.05
2019-01-17T14:33:15.576Z,11.05
2019-01-17T14:35:45.028Z,11.19
2019-01-17T14:38:14.459Z,11.18
2019-01-17T14:40:43.885Z,11.04
2019-01-17T14:43:13.294Z,11.03
2019-01-17T14:45:42.685Z,10.97
2019-01-17T14:48:12.107Z,10.86
2019-01-17T14:50:41.466Z,10.74
2019-01-17T14:53:10.874Z,10.61
2019-01-17T14:55:40.217Z,10.54
2019-01-17T14:58:09.559Z,10.47
2019-01-17T15:00:38.889Z,10.33
2019-01-17T15:03:08.239Z,10.15
2019-01-17T15:05:37.575Z,10.13
2019-01-17T15:08:06.924Z,10.02
2019-01-17T15:10:38.657Z,9.92
2019-01-17T15:13:07.693Z,9.86
2019-01-17T15:15:37.186Z,9.75
2019-01-17T15:21:09.623Z,9.62
2019-01-17T15:23:38.616Z,9.46
2019-01-17T15:26:08.203Z,9.32
2019-01-17T15:28:37.549Z,9.33
2019-01-17T15:31:06.883Z,9.21
2019-01-17T15:33:36.222Z,9.25
2019-01-17T15:36:05.583Z,9.13
2019-01-17T15:38:34.951Z,8.96
2019-01-17T15:41:04.398Z,9.11
2019-01-17T15:43:33.799Z,9.17
2019-01-17T15:46:02.651Z,9.05
2019-01-17T15:48:32.001Z,9.01
2019-01-17T15:51:01.606Z,8.91
2019-01-17T15:53:30.354Z,8.95
2019-01-17T15:55:59.712Z,9.01
2019-01-17T15:58:29.085Z,8.99
2019-01-17T16:00:58.430Z,8.92
2019-01-17T16:03:27.768Z,8.69
2019-01-17T16:05:57.092Z,8.46
2019-01-17T16:08:25.646Z,8.60
2019-01-17T16:10:54.969Z,8.69
2019-01-17T16:13:24.308Z,8.68
2019-01-17T16:15:53.671Z,8.62
2019-01-17T16:18:23.012Z,8.59
2019-01-17T16:20:52.353Z,8.60
2019-01-17T16:23:21.686Z,8.43
2019-01-17T16:25:51.034Z,8.29
2019-01-17T16:28:20.393Z,8.18
2019-01-17T16:30:49.718Z,7.94
2019-01-17T16:33:19.056Z,7.72
2019-01-17T16:35:47.987Z,7.62
2019-01-17T16:38:17.327Z,7.66
2019-01-17T16:40:46.572Z,8.03
2019-01-17T16:43:15.901Z,7.81
2019-01-17T16:45:45.244Z,7.80
2019-01-17T16:48:14.621Z,7.88
2019-01-17T16:50:44.020Z,8.00
2019-01-17T16:53:13.356Z,7.74
2019-01-17T16:55:42.286Z,7.41
2019-01-17T16:58:11.641Z,7.83
2019-01-17T17:00:42.999Z,7.71
2019-01-17T17:03:11.448Z,7.43
2019-01-17T17:05:40.894Z,7.25
2019-01-17T17:08:10.243Z,6.91
2019-01-17T17:10:39.585Z,6.81
2019-01-17T17:13:08.936Z,6.88
2019-01-17T17:15:37.785Z,6.88
2019-01-17T17:18:07.124Z,6.82
2019-01-17T17:20:35.669Z,6.87
2019-01-17T17:23:05.007Z,6.56
2019-01-17T17:25:34.336Z,6.49
2019-01-17T17:28:03.866Z,6.35
2019-01-17T17:30:32.408Z,6.31
2019-01-17T17:33:01.049Z,6.32
2019-01-17T17:35:29.991Z,6.25
2019-01-17T17:37:59.317Z,6.22
2019-01-17T17:40:29.808Z,6.19
2019-01-17T17:42:58.586Z,6.17
2019-01-17T17:45:28.734Z,6.37
2019-01-17T17:47:59.165Z,6.15
2019-01-17T17:50:27.903Z,6.12
2019-01-17T17:52:57.241Z,6.38
2019-01-17T17:55:26.630Z,6.11
2019-01-17T17:58:01.959Z,6.28
2019-01-17T18:01:04.651Z,6.09
2019-01-17T18:03:33.987Z,6.06
2019-01-17T18:06:02.541Z,6.07
2019-01-17T18:08:31.534Z,5.96
2019-01-17T18:11:00.908Z,5.96
2019-01-17T18:13:30.192Z,5.95
2019-01-17T18:15:59.547Z,5.89
2019-01-17T18:18:28.865Z,5.90
2019-01-17T18:20:58.212Z,5.95
2019-01-17T18:23:27.541Z,5.66
2019-01-17T18:25:56.880Z,5.70
2019-01-17T18:28:26.222Z,5.69
2019-01-17T18:30:55.550Z,5.28
2019-01-17T18:33:24.197Z,5.11
2019-01-17T18:35:52.730Z,5.39
2019-01-17T18:38:21.262Z,5.56
2019-01-17T18:40:50.925Z,5.61
2019-01-17T18:43:20.255Z,5.32
2019-01-17T18:45:49.586Z,5.31
2019-01-17T18:48:19.162Z,4.99
2019-01-17T18:50:48.750Z,5.08
2019-01-17T18:53:18.264Z,5.14
2019-01-17T18:55:47.605Z,5.02
2019-01-17T18:58:16.950Z,5.12
2019-01-17T19:00:46.452Z,5.06
2019-01-17T19:03:15.343Z,5.33
2019-01-17T19:05:44.125Z,5.17
2019-01-17T19:08:13.709Z,5.10
2019-01-17T19:10:43.459Z,5.24
2019-01-17T19:13:12.819Z,5.26
2019-01-17T19:15:42.263Z,5.17
2019-01-17T19:18:11.706Z,5.34
2019-01-17T19:20:41.042Z,5.13
2019-01-17T19:23:10.375Z,5.30
2019-01-17T19:25:38.997Z,5.28
2019-01-17T19:28:08.433Z,4.97
2019-01-17T19:30:36.863Z,4.81
2019-01-17T19:35:45.403Z,4.82
2019-01-17T19:38:14.777Z,4.50
2019-01-17T19:40:44.110Z,4.48
2019-01-17T19:43:13.440Z,4.32
2019-01-17T19:45:42.787Z,4.15
2019-01-17T19:48:12.116Z,4.37
2019-01-17T19:50:41.464Z,4.58
2019-01-17T19:53:10.231Z,4.51
2019-01-17T19:55:38.958Z,4.65
2019-01-17T19:58:07.482Z,4.86
2019-01-17T20:00:36.793Z,4.48
2019-01-17T20:03:06.318Z,4.25
2019-01-17T20:05:35.955Z,4.37
2019-01-17T20:08:05.290Z,4.36
2019-01-17T20:10:35.714Z,4.57
2019-01-17T20:13:05.641Z,4.48
2019-01-17T20:18:18.838Z,4.36
2019-01-17T20:20:48.175Z,4.14
2019-01-17T20:23:17.499Z,4.18
2019-01-17T20:25:46.846Z,4.43
2019-01-17T20:28:16.156Z,4.02
2019-01-17T20:30:45.482Z,3.83
2019-01-17T20:33:14.806Z,4.05
2019-01-17T20:35:44.149Z,4.11
2019-01-17T20:38:13.476Z,3.98
2019-01-17T20:40:42.040Z,4.03
2019-01-17T20:43:11.367Z,4.10
2019-01-17T20:45:40.695Z,4.24
2019-01-17T20:48:10.024Z,4.31
2019-01-17T20:50:39.462Z,4.29
2019-01-17T20:53:08.791Z,4.32
2019-01-17T20:55:38.125Z,4.41
2019-01-17T20:58:07.451Z,4.43
2019-01-17T21:01:15.502Z,4.04
2019-01-17T21:03:44.028Z,3.84
2019-01-17T21:06:12.752Z,3.76
2019-01-17T21:08:41.393Z,3.73
2019-01-17T21:11:10.757Z,3.54
2019-01-17T21:13:39.192Z,3.65
2019-01-17T21:16:08.509Z,4.03
2019-01-17T21:18:37.843Z,4.08
2019-01-17T21:21:07.185Z,3.75
2019-01-17T21:23:35.713Z,3.62
2019-01-17T21:26:04.253Z,3.59
2019-01-17T21:28:33.569Z,3.71
2019-01-17T21:31:02.898Z,3.54
2019-01-17T21:33:32.232Z,3.81
2019-01-17T21:36:01.558Z,3.50
2019-01-17T21:38:30.898Z,3.58
2019-01-17T21:41:00.209Z,3.86
2019-01-17T21:43:28.630Z,3.41
2019-01-17T21:45:57.055Z,3.32
2019-01-17T21:48:25.532Z,3.59
2019-01-17T21:50:54.845Z,3.62
2019-01-17T21:53:24.167Z,3.69
2019-01-17T21:55:53.490Z,3.38
2019-01-17T21:58:23.977Z,3.24
2019-01-17T22:00:52.514Z,3.10
2019-01-17T22:03:20.942Z,3.41
2019-01-17T22:05:50.267Z,3.36
2019-01-17T22:08:18.893Z,3.22
2019-01-17T22:10:47.612Z,3.15
2019-01-17T22:13:17.038Z,2.80
2019-01-17T22:15:46.350Z,3.12
2019-01-17T22:18:15.665Z,3.46
2019-01-17T22:20:44.991Z,3.24
2019-01-17T22:23:14.342Z,2.69
2019-01-17T22:25:43.689Z,2.91
2019-01-17T22:28:13.017Z,3.08
2019-01-17T22:30:42.607Z,2.78
2019-01-17T22:33:11.977Z,2.92
2019-01-17T22:35:41.296Z,2.80
2019-01-17T22:38:10.631Z,2.87
2019-01-17T22:40:39.271Z,2.75
2019-01-17T22:43:08.733Z,2.56
2019-01-17T22:45:38.151Z,2.41
2019-01-17T22:48:07.484Z,2.76
2019-01-17T22:50:36.826Z,2.81
2019-01-17T22:53:06.142Z,2.40
2019-01-17T22:55:35.474Z,2.68
2019-01-17T22:58:03.887Z,2.98
2019-01-17T23:01:11.247Z,3.06
2019-01-17T23:03:41.935Z,2.65
2019-01-17T23:06:10.468Z,2.58
2019-01-17T23:08:39.781Z,2.94
2019-01-17T23:11:09.108Z,2.73
2019-01-17T23:13:38.543Z,2.25
2019-01-17T23:16:07.903Z,2.45
2019-01-17T23:18:37.272Z,2.69
2019-01-17T23:21:06.606Z,2.22
2019-01-17T23:23:35.029Z,2.53
2019-01-17T23:26:03.691Z,2.36
2019-01-17T23:28:33.030Z,2.20
2019-01-17T23:31:02.367Z,2.27
2019-01-17T23:33:30.983Z,2.48
2019-01-17T23:36:00.313Z,2.51
2019-01-17T23:38:29.651Z,2.42
2019-01-17T23:40:58.173Z,2.78
2019-01-17T23:43:26.818Z,2.83
2019-01-17T23:45:55.239Z,2.79
2019-01-17T23:48:23.895Z,2.66
2019-01-17T23:50:53.214Z,2.25
2019-01-17T23:53:22.552Z,2.25
2019-01-17T23:55:51.925Z,2.54
2019-01-17T23:58:21.201Z,2.56
